createdAt,value
2019-02-19T00:01:35.311Z,8.89
2019-02-19T00:04:04.704Z,8.86
2019-02-19T00:06:34.052Z,8.65
2019-02-19T00:09:05.067Z,8.61
2019-02-19T00:11:34.070Z,8.54
2019-02-19T00:14:03.444Z,8.55
2019-02-19T00:16:32.894Z,8.61
2019-02-19T00:19:01.906Z,8.60
2019-02-19T00:21:30.936Z,8.74
2019-02-19T00:24:00.339Z,8.63
2019-02-19T00:26:29.428Z,8.78
2019-02-19T00:28:58.460Z,8.75
2019-02-19T00:31:27.834Z,8.69
2019-02-19T00:33:58.550Z,8.37
2019-02-19T00:36:27.556Z,8.53
2019-02-19T00:38:56.582Z,8.41
2019-02-19T00:41:25.606Z,8.49
2019-02-19T00:43:55.508Z,8.44
2019-02-19T00:46:24.514Z,8.31
2019-02-19T00:48:53.861Z,8.51
2019-02-19T00:51:23.024Z,8.26
2019-02-19T00:53:52.124Z,8.41
2019-02-19T00:56:21.197Z,8.34
2019-02-19T00:58:50.281Z,8.48
2019-02-19T01:01:19.384Z,8.42
2019-02-19T01:03:48.409Z,8.45
2019-02-19T01:06:17.724Z,8.46
2019-02-19T01:08:46.752Z,8.40
2019-02-19T01:11:16.127Z,8.53
2019-02-19T01:13:45.328Z,8.43
2019-02-19T01:16:14.376Z,8.48
2019-02-19T01:18:43.882Z,8.37
2019-02-19T01:21:13.276Z,8.42
2019-02-19T01:23:42.944Z,8.46
2019-02-19T01:26:11.937Z,8.36
2019-02-19T01:28:40.946Z,8.17
2019-02-19T01:31:10.772Z,8.37
2019-02-19T01:33:40.621Z,8.40
2019-02-19T01:36:09.651Z,8.35
2019-02-19T01:38:38.664Z,8.19
2019-02-19T01:41:08.034Z,8.17
2019-02-19T01:43:37.161Z,8.34
2019-02-19T01:46:06.484Z,8.15
2019-02-19T01:48:35.498Z,8.20
2019-02-19T01:51:04.722Z,8.30
2019-02-19T01:53:33.756Z,8.28
2019-02-19T01:56:03.591Z,8.12
2019-02-19T01:58:32.641Z,8.27
2019-02-19T02:01:02.386Z,8.18
2019-02-19T02:03:31.845Z,8.20
2019-02-19T02:06:01.460Z,8.11
2019-02-19T02:08:30.770Z,8.14
2019-02-19T02:10:59.765Z,8.19
2019-02-19T02:13:28.868Z,8.15
2019-02-19T02:15:57.997Z,8.14
2019-02-19T02:18:27.255Z,8.07
2019-02-19T02:20:56.661Z,8.13
2019-02-19T02:23:26.062Z,8.02
2019-02-19T02:25:55.280Z,7.89
2019-02-19T02:28:24.666Z,7.86
2019-02-19T02:30:53.844Z,7.98
2019-02-19T02:33:23.266Z,7.97
2019-02-19T02:35:52.690Z,8.01
2019-02-19T02:38:21.710Z,7.97
2019-02-19T02:40:51.111Z,7.95
2019-02-19T02:43:20.460Z,8.00
2019-02-19T02:45:53.302Z,8.12
2019-02-19T02:48:20.311Z,8.00
2019-02-19T02:50:49.724Z,7.95
2019-02-19T02:53:18.788Z,8.12
2019-02-19T02:55:48.061Z,7.98
2019-02-19T02:58:17.122Z,8.09
2019-02-19T03:00:46.149Z,8.01
2019-02-19T03:03:15.221Z,8.07
2019-02-19T03:06:00.598Z,8.03
2019-02-19T03:08:29.606Z,8.06
2019-02-19T03:10:58.599Z,7.96
2019-02-19T03:13:27.750Z,7.88
2019-02-19T03:16:02.481Z,7.99
2019-02-19T03:18:27.667Z,7.98
2019-02-19T03:20:56.963Z,8.09
2019-02-19T03:23:26.007Z,7.78
2019-02-19T03:25:55.052Z,7.79
2019-02-19T03:28:24.100Z,7.80
2019-02-19T03:30:53.125Z,7.79
2019-02-19T03:33:22.365Z,7.72
2019-02-19T03:35:51.684Z,7.79
2019-02-19T03:38:20.930Z,7.67
2019-02-19T03:40:50.217Z,7.54
2019-02-19T03:43:19.718Z,7.53
2019-02-19T03:45:49.216Z,7.48
2019-02-19T03:48:18.974Z,7.36
2019-02-19T03:50:48.387Z,7.34
2019-02-19T03:53:17.870Z,7.28
2019-02-19T03:55:47.306Z,7.16
2019-02-19T03:58:16.708Z,7.19
2019-02-19T04:00:45.958Z,7.27
2019-02-19T04:03:14.967Z,7.24
2019-02-19T04:05:44.270Z,7.18
2019-02-19T04:08:13.316Z,7.01
2019-02-19T04:10:42.345Z,6.91
2019-02-19T04:13:11.762Z,6.95
2019-02-19T04:15:41.566Z,6.99
2019-02-19T04:18:10.878Z,6.84
2019-02-19T04:20:39.969Z,6.88
2019-02-19T04:23:09.682Z,6.90
2019-02-19T04:25:38.980Z,7.02
2019-02-19T04:28:08.503Z,6.83
2019-02-19T04:30:38.013Z,6.91
2019-02-19T04:33:07.310Z,6.88
2019-02-19T04:35:36.715Z,6.86
2019-02-19T04:38:05.997Z,6.78
2019-02-19T04:40:36.612Z,6.77
2019-02-19T04:43:05.620Z,6.79
2019-02-19T04:45:34.698Z,6.91
2019-02-19T04:48:03.747Z,6.91
2019-02-19T04:50:32.729Z,6.72
2019-02-19T04:53:02.083Z,6.69
2019-02-19T04:55:31.461Z,6.63
2019-02-19T04:58:00.570Z,6.73
2019-02-19T05:00:29.883Z,6.78
2019-02-19T05:02:59.229Z,6.75
2019-02-19T05:05:28.549Z,6.58
2019-02-19T05:07:57.879Z,6.52
2019-02-19T05:10:27.224Z,6.41
2019-02-19T05:12:56.438Z,6.52
2019-02-19T05:15:25.689Z,6.50
2019-02-19T05:17:54.818Z,6.45
2019-02-19T05:20:24.264Z,6.38
2019-02-19T05:22:53.661Z,6.59
2019-02-19T05:25:23.078Z,6.59
2019-02-19T05:27:52.099Z,6.73
2019-02-19T05:30:21.426Z,6.36
2019-02-19T05:32:50.778Z,6.19
2019-02-19T05:35:19.830Z,6.07
2019-02-19T05:37:48.865Z,6.11
2019-02-19T05:40:18.222Z,6.14
2019-02-19T05:42:47.304Z,5.99
2019-02-19T05:45:16.305Z,5.97
2019-02-19T05:47:45.677Z,5.98
2019-02-19T05:50:15.565Z,6.13
2019-02-19T05:52:44.581Z,6.07
2019-02-19T05:55:13.611Z,6.15
2019-02-19T05:57:42.621Z,6.09
2019-02-19T06:00:12.631Z,6.09
2019-02-19T06:02:41.707Z,6.10
2019-02-19T06:05:10.904Z,6.02
2019-02-19T06:07:39.963Z,6.09
2019-02-19T06:10:10.767Z,5.88
2019-02-19T06:12:40.118Z,5.88
2019-02-19T06:15:09.666Z,5.87
2019-02-19T06:17:39.002Z,5.76
2019-02-19T06:20:08.548Z,5.58
2019-02-19T06:22:37.563Z,5.43
2019-02-19T06:25:07.922Z,5.55
2019-02-19T06:27:36.996Z,5.54
2019-02-19T06:30:08.815Z,5.46
2019-02-19T06:32:37.921Z,5.41
2019-02-19T06:35:07.535Z,5.50
2019-02-19T06:37:36.795Z,5.76
2019-02-19T06:40:06.831Z,5.71
2019-02-19T06:42:35.885Z,5.98
2019-02-19T06:45:05.303Z,5.79
2019-02-19T06:47:34.293Z,5.75
2019-02-19T06:50:03.771Z,5.53
2019-02-19T06:52:33.177Z,5.40
2019-02-19T06:55:02.277Z,5.26
2019-02-19T06:57:31.291Z,5.42
2019-02-19T07:00:00.343Z,5.33
2019-02-19T07:02:54.643Z,5.43
2019-02-19T07:05:25.044Z,5.41
2019-02-19T07:07:54.115Z,5.56
2019-02-19T07:10:23.146Z,5.51
2019-02-19T07:12:52.187Z,5.52
2019-02-19T07:15:21.240Z,5.68
2019-02-19T07:17:50.365Z,5.69
2019-02-19T07:20:19.407Z,5.92
2019-02-19T07:22:48.854Z,6.06
2019-02-19T07:25:18.268Z,6.18
2019-02-19T07:27:47.317Z,6.18
2019-02-19T07:30:16.339Z,6.31
2019-02-19T07:32:45.627Z,6.29
2019-02-19T07:35:14.985Z,6.26
2019-02-19T07:37:44.295Z,6.12
2019-02-19T07:40:13.342Z,6.30
2019-02-19T07:42:42.757Z,6.35
2019-02-19T07:45:11.869Z,6.42
2019-02-19T07:47:40.884Z,6.42
2019-02-19T07:50:10.213Z,6.37
2019-02-19T07:52:39.570Z,6.15
2019-02-19T07:55:09.107Z,6.21
2019-02-19T07:57:38.125Z,6.40
2019-02-19T08:00:08.172Z,6.18
2019-02-19T08:02:37.411Z,6.30
2019-02-19T08:05:06.814Z,6.72
2019-02-19T08:07:35.827Z,6.72
2019-02-19T08:10:05.276Z,6.99
2019-02-19T08:12:34.272Z,6.95
2019-02-19T08:15:03.301Z,7.11
2019-02-19T08:17:33.551Z,7.12
2019-02-19T08:20:02.862Z,6.93
2019-02-19T08:22:32.261Z,7.16
2019-02-19T08:25:01.313Z,7.25
2019-02-19T08:27:30.325Z,7.30
2019-02-19T08:29:59.315Z,7.51
2019-02-19T08:32:28.681Z,7.50
2019-02-19T08:34:58.046Z,7.62
2019-02-19T08:37:27.448Z,7.57
2019-02-19T08:39:56.776Z,7.97
2019-02-19T08:42:26.161Z,8.18
2019-02-19T08:44:55.169Z,7.90
2019-02-19T08:47:24.173Z,7.95
2019-02-19T08:49:53.187Z,8.08
2019-02-19T08:52:22.301Z,8.25
2019-02-19T08:54:51.631Z,8.59
2019-02-19T08:57:20.668Z,10.16
2019-02-19T08:59:49.686Z,11.60
2019-02-19T09:02:19.008Z,12.91
2019-02-19T09:04:48.162Z,12.93
2019-02-19T09:07:17.193Z,14.04
2019-02-19T09:09:46.901Z,13.30
2019-02-19T09:12:15.969Z,12.94
2019-02-19T09:14:45.053Z,12.73
2019-02-19T09:17:14.084Z,12.33
2019-02-19T09:19:43.097Z,13.56
2019-02-19T09:22:12.442Z,12.64
2019-02-19T09:24:41.463Z,12.59
2019-02-19T09:27:10.597Z,13.72
2019-02-19T09:29:39.658Z,14.05
2019-02-19T09:32:08.719Z,13.05
2019-02-19T09:34:37.742Z,13.63
2019-02-19T09:37:08.015Z,13.44
2019-02-19T09:39:37.319Z,13.10
2019-02-19T09:42:06.300Z,12.21
2019-02-19T09:44:35.757Z,12.62
2019-02-19T09:47:04.835Z,13.92
2019-02-19T09:49:33.855Z,14.60
2019-02-19T09:52:02.880Z,14.49
2019-02-19T09:54:31.920Z,16.02
2019-02-19T09:57:01.051Z,16.69
2019-02-19T09:59:30.168Z,15.49
2019-02-19T10:01:59.384Z,15.39
2019-02-19T10:04:28.461Z,15.19
2019-02-19T10:06:57.609Z,16.78
2019-02-19T10:09:26.711Z,17.20
2019-02-19T10:11:55.765Z,15.59
2019-02-19T10:14:24.821Z,16.07
2019-02-19T10:16:53.901Z,16.14
2019-02-19T10:19:22.979Z,15.48
2019-02-19T10:21:52.131Z,15.51
2019-02-19T10:24:21.144Z,14.51
2019-02-19T10:26:50.497Z,14.82
2019-02-19T10:29:19.541Z,15.21
2019-02-19T10:31:48.571Z,16.97
2019-02-19T10:34:17.618Z,15.02
2019-02-19T10:36:46.637Z,16.15
2019-02-19T10:39:15.639Z,16.29
2019-02-19T10:41:44.691Z,16.11
2019-02-19T10:44:13.726Z,16.61
2019-02-19T10:46:42.756Z,16.74
2019-02-19T10:49:11.771Z,17.46
2019-02-19T10:51:40.991Z,17.24
2019-02-19T10:54:10.189Z,17.14
2019-02-19T10:56:39.229Z,16.46
2019-02-19T10:59:08.551Z,16.12
2019-02-19T11:01:37.569Z,16.22
2019-02-19T11:04:06.629Z,16.87
2019-02-19T11:06:35.639Z,17.45
2019-02-19T11:09:05.903Z,16.70
2019-02-19T11:11:35.000Z,14.91
2019-02-19T11:14:04.070Z,15.11
2019-02-19T11:16:33.090Z,16.64
2019-02-19T11:19:02.168Z,16.74
2019-02-19T11:21:31.469Z,18.12
2019-02-19T11:24:00.479Z,16.93
2019-02-19T11:26:29.833Z,17.26
2019-02-19T11:28:58.855Z,17.71
2019-02-19T11:31:27.868Z,16.08
2019-02-19T11:33:57.276Z,15.57
2019-02-19T11:36:26.346Z,14.78
2019-02-19T11:38:55.340Z,15.44
2019-02-19T11:41:24.403Z,16.94
2019-02-19T11:43:53.399Z,16.29
2019-02-19T11:46:22.438Z,15.42
2019-02-19T11:48:51.463Z,14.43
2019-02-19T11:51:20.551Z,13.69
2019-02-19T11:53:49.554Z,14.42
2019-02-19T11:56:18.583Z,15.82
2019-02-19T11:58:47.958Z,15.95
2019-02-19T12:01:17.783Z,17.08
2019-02-19T12:03:46.824Z,16.11
2019-02-19T12:06:15.906Z,16.26
2019-02-19T12:08:45.215Z,16.35
2019-02-19T12:11:14.530Z,15.76
2019-02-19T12:13:43.566Z,14.16
2019-02-19T12:16:12.885Z,14.19
2019-02-19T12:18:46.277Z,15.05
2019-02-19T12:21:12.677Z,15.83
2019-02-19T12:23:41.976Z,17.09
2019-02-19T12:26:11.017Z,17.70
2019-02-19T12:28:40.024Z,16.57
2019-02-19T12:31:09.069Z,17.52
2019-02-19T12:33:38.088Z,19.61
2019-02-19T12:36:07.412Z,21.39
2019-02-19T12:38:36.488Z,20.12
2019-02-19T12:41:05.616Z,18.06
2019-02-19T12:43:34.889Z,17.54
2019-02-19T12:46:03.926Z,18.09
2019-02-19T12:48:33.020Z,18.90
2019-02-19T12:51:02.309Z,18.83
2019-02-19T12:53:31.365Z,18.48
2019-02-19T12:56:00.375Z,18.83
2019-02-19T12:58:29.724Z,20.05
2019-02-19T13:00:59.308Z,19.54
2019-02-19T13:03:28.348Z,19.16
2019-02-19T13:05:57.407Z,17.95
2019-02-19T13:08:26.718Z,18.20
2019-02-19T13:10:55.737Z,19.35
2019-02-19T13:13:24.736Z,18.07
2019-02-19T13:15:53.747Z,18.79
2019-02-19T13:18:23.040Z,19.79
2019-02-19T13:20:52.213Z,18.46
2019-02-19T13:23:21.234Z,17.95
2019-02-19T13:25:50.320Z,17.94
2019-02-19T13:28:19.625Z,16.37
2019-02-19T13:30:50.824Z,15.31
2019-02-19T13:33:19.831Z,14.50
2019-02-19T13:35:50.676Z,14.68
2019-02-19T13:38:19.803Z,15.62
2019-02-19T13:40:49.076Z,16.86
2019-02-19T13:43:18.367Z,17.95
2019-02-19T13:45:47.712Z,18.37
2019-02-19T13:48:16.757Z,17.94
2019-02-19T13:50:46.061Z,17.76
2019-02-19T13:53:34.080Z,18.21
2019-02-19T13:56:04.132Z,16.32
2019-02-19T13:58:33.152Z,16.05
2019-02-19T14:01:02.309Z,15.55
2019-02-19T14:03:31.596Z,14.82
2019-02-19T14:06:00.645Z,14.76
2019-02-19T14:08:29.697Z,14.38
2019-02-19T14:10:58.968Z,13.87
2019-02-19T14:13:27.975Z,13.74
2019-02-19T14:16:15.990Z,13.50
2019-02-19T14:18:48.488Z,13.99
2019-02-19T14:21:54.464Z,15.10
2019-02-19T14:24:39.406Z,15.11
2019-02-19T14:27:22.302Z,14.85
2019-02-19T14:30:19.494Z,14.99
2019-02-19T14:33:07.462Z,14.39
2019-02-19T14:36:00.548Z,14.13
2019-02-19T14:38:47.768Z,13.63
2019-02-19T14:41:36.823Z,13.37
2019-02-19T14:44:24.092Z,13.30
2019-02-19T14:47:12.104Z,13.39
2019-02-19T14:50:03.599Z,13.55
2019-02-19T14:52:57.404Z,13.60
2019-02-19T14:55:45.549Z,13.91
2019-02-19T14:58:36.726Z,14.23
2019-02-19T15:01:33.735Z,13.81
2019-02-19T15:04:33.782Z,14.10
2019-02-19T15:07:21.847Z,14.49
2019-02-19T15:10:08.506Z,14.41
2019-02-19T15:12:43.534Z,14.41
2019-02-19T15:15:29.627Z,14.33
2019-02-19T15:18:30.035Z,14.00
2019-02-19T15:21:33.223Z,13.81
2019-02-19T15:24:36.905Z,13.38
2019-02-19T15:27:21.014Z,13.49
2019-02-19T15:30:09.813Z,13.50
2019-02-19T15:33:00.876Z,13.34
2019-02-19T15:35:51.687Z,13.43
2019-02-19T15:38:38.469Z,13.32
2019-02-19T15:41:29.370Z,13.24
2019-02-19T15:44:26.492Z,12.84
2019-02-19T15:47:11.624Z,12.84
2019-02-19T15:49:58.094Z,12.86
2019-02-19T15:52:54.908Z,12.33
2019-02-19T15:55:34.215Z,12.47
2019-02-19T15:58:15.532Z,12.46
2019-02-19T16:00:46.874Z,12.51
2019-02-19T16:03:26.237Z,12.57
2019-02-19T16:06:26.347Z,12.53
2019-02-19T16:09:01.674Z,12.46
2019-02-19T16:11:52.718Z,12.42
2019-02-19T16:14:38.635Z,12.27
2019-02-19T16:17:16.544Z,12.37
2019-02-19T16:20:07.445Z,12.32
2019-02-19T16:22:55.484Z,12.29
2019-02-19T16:25:39.428Z,12.20
2019-02-19T16:28:20.987Z,12.02
2019-02-19T16:31:27.221Z,11.86
2019-02-19T16:34:13.676Z,11.64
2019-02-19T16:36:50.833Z,11.89
2019-02-19T16:39:36.715Z,11.78
2019-02-19T16:42:20.054Z,11.67
2019-02-19T16:45:09.070Z,11.72
2019-02-19T16:47:57.427Z,11.54
2019-02-19T16:50:36.286Z,11.43
2019-02-19T16:53:14.949Z,11.27
2019-02-19T16:56:02.982Z,11.27
2019-02-19T16:58:54.190Z,11.31
2019-02-19T17:01:52.344Z,11.16
2019-02-19T17:04:27.467Z,11.06
2019-02-19T17:07:18.478Z,10.91
2019-02-19T17:10:12.350Z,10.74
2019-02-19T17:12:53.954Z,10.70
2019-02-19T17:15:51.063Z,10.70
2019-02-19T17:18:37.848Z,10.58
2019-02-19T17:21:24.630Z,10.57
2019-02-19T17:24:05.994Z,10.32
2019-02-19T17:27:00.823Z,10.24
2019-02-19T17:29:36.585Z,10.37
2019-02-19T17:32:31.065Z,10.40
2019-02-19T17:35:22.238Z,10.36
2019-02-19T17:37:58.488Z,10.26
2019-02-19T17:40:55.710Z,9.96
2019-02-19T17:43:36.169Z,9.75
2019-02-19T17:46:12.752Z,9.62
2019-02-19T17:48:55.030Z,9.52
2019-02-19T17:51:58.415Z,9.44
2019-02-19T17:54:46.440Z,9.61
2019-02-19T17:57:33.347Z,9.44
2019-02-19T18:00:33.539Z,9.24
2019-02-19T18:03:23.300Z,9.35
2019-02-19T18:06:26.505Z,9.21
2019-02-19T18:09:14.542Z,9.18
2019-02-19T18:12:01.400Z,9.43
2019-02-19T18:14:41.391Z,9.40
2019-02-19T18:17:32.327Z,9.41
2019-02-19T18:20:01.393Z,9.35
2019-02-19T18:22:30.738Z,9.41
2019-02-19T18:25:00.299Z,9.34
2019-02-19T18:27:29.391Z,9.33
2019-02-19T18:29:58.467Z,9.48
2019-02-19T18:32:27.566Z,9.47
2019-02-19T18:34:56.648Z,9.52
2019-02-19T18:37:25.720Z,9.40
2019-02-19T18:39:54.748Z,9.23
2019-02-19T18:42:23.790Z,9.15
2019-02-19T18:44:52.803Z,9.13
2019-02-19T18:47:21.964Z,9.01
2019-02-19T18:49:50.997Z,9.00
2019-02-19T18:52:20.376Z,8.94
2019-02-19T18:54:50.090Z,8.92
2019-02-19T18:57:19.764Z,9.07
2019-02-19T18:59:48.792Z,8.96
2019-02-19T19:02:18.118Z,8.94
2019-02-19T19:04:47.679Z,8.93
2019-02-19T19:07:16.713Z,8.84
2019-02-19T19:09:45.735Z,8.94
2019-02-19T19:12:15.077Z,8.98
2019-02-19T19:14:44.142Z,8.77
2019-02-19T19:17:13.166Z,8.89
2019-02-19T19:19:42.194Z,8.75
2019-02-19T19:22:11.494Z,8.61
2019-02-19T19:24:40.843Z,8.54
2019-02-19T19:27:10.174Z,8.40
2019-02-19T19:29:39.208Z,8.38
2019-02-19T19:32:08.398Z,8.38
2019-02-19T19:34:37.848Z,8.35
2019-02-19T19:37:06.922Z,8.40
2019-02-19T19:39:35.955Z,8.16
2019-02-19T19:42:05.007Z,8.14
2019-02-19T19:44:34.053Z,7.98
2019-02-19T19:47:03.098Z,7.98
2019-02-19T19:49:32.516Z,8.04
2019-02-19T19:52:02.041Z,8.02
2019-02-19T19:54:31.930Z,8.17
2019-02-19T19:57:01.009Z,8.11
2019-02-19T19:59:30.244Z,8.13
2019-02-19T20:01:59.296Z,8.03
2019-02-19T20:04:28.459Z,8.16
2019-02-19T20:06:57.536Z,8.06
2019-02-19T20:09:26.599Z,7.93
2019-02-19T20:11:55.698Z,7.92
2019-02-19T20:14:24.701Z,7.84
2019-02-19T20:16:53.764Z,7.80
2019-02-19T20:19:22.885Z,7.67
2019-02-19T20:21:52.224Z,7.78
2019-02-19T20:24:21.326Z,7.77
2019-02-19T20:26:50.386Z,7.68
2019-02-19T20:29:19.412Z,7.66
2019-02-19T20:31:48.795Z,7.55
2019-02-19T20:34:17.842Z,7.55
2019-02-19T20:36:47.062Z,7.53
2019-02-19T20:39:16.222Z,7.65
2019-02-19T20:41:45.285Z,7.62
2019-02-19T20:44:14.322Z,7.65
2019-02-19T20:46:44.035Z,7.66
2019-02-19T20:49:13.090Z,7.52
2019-02-19T20:51:42.210Z,7.49
2019-02-19T20:54:11.214Z,7.68
2019-02-19T20:56:40.263Z,7.43
2019-02-19T20:59:09.263Z,7.37
2019-02-19T21:01:38.336Z,7.31
2019-02-19T21:04:07.748Z,7.29
2019-02-19T21:06:37.275Z,7.21
2019-02-19T21:09:07.724Z,7.11
2019-02-19T21:11:38.311Z,6.84
2019-02-19T21:14:07.437Z,6.76
2019-02-19T21:16:37.042Z,6.77
2019-02-19T21:19:06.108Z,6.66
2019-02-19T21:21:35.174Z,6.69
2019-02-19T21:24:04.312Z,6.62
2019-02-19T21:26:33.644Z,6.64
2019-02-19T21:29:02.716Z,6.59
2019-02-19T21:31:31.761Z,6.52
2019-02-19T21:34:00.818Z,6.84
2019-02-19T21:36:30.109Z,6.96
2019-02-19T21:38:59.184Z,7.15
2019-02-19T21:41:28.210Z,6.89
2019-02-19T21:43:57.301Z,6.90
2019-02-19T21:46:26.333Z,6.78
2019-02-19T21:48:55.377Z,6.63
2019-02-19T21:51:24.444Z,6.54
2019-02-19T21:53:53.515Z,6.48
2019-02-19T21:56:22.567Z,6.49
2019-02-19T21:58:51.611Z,6.46
2019-02-19T22:01:20.657Z,6.46
2019-02-19T22:03:49.735Z,6.42
2019-02-19T22:06:18.779Z,6.36
2019-02-19T22:08:47.827Z,6.36
2019-02-19T22:11:16.921Z,6.34
2019-02-19T22:13:46.601Z,6.26
2019-02-19T22:16:18.813Z,6.25
2019-02-19T22:18:47.843Z,6.13
2019-02-19T22:21:21.910Z,6.11
2019-02-19T22:23:51.317Z,6.12
2019-02-19T22:26:20.351Z,6.15
2019-02-19T22:28:49.507Z,6.18
2019-02-19T22:31:18.576Z,6.17
2019-02-19T22:33:48.029Z,6.15
2019-02-19T22:36:17.305Z,6.15
2019-02-19T22:38:46.360Z,6.13
2019-02-19T22:41:15.401Z,6.13
2019-02-19T22:43:44.415Z,6.01
2019-02-19T22:46:13.911Z,5.90
2019-02-19T22:48:43.291Z,5.92
2019-02-19T22:51:12.701Z,5.88
2019-02-19T22:54:12.931Z,5.84
2019-02-19T22:56:44.203Z,5.86
2019-02-19T22:59:13.270Z,5.77
2019-02-19T23:02:02.377Z,5.55
2019-02-19T23:04:33.289Z,5.40
2019-02-19T23:07:02.371Z,5.32
2019-02-19T23:09:31.669Z,5.26
2019-02-19T23:12:00.739Z,5.23
2019-02-19T23:14:29.777Z,5.20
2019-02-19T23:16:58.841Z,5.13
2019-02-19T23:19:28.173Z,5.01
2019-02-19T23:21:57.216Z,4.86
2019-02-19T23:24:26.537Z,4.87
2019-02-19T23:26:55.629Z,4.92
2019-02-19T23:29:24.734Z,4.94
2019-02-19T23:31:53.737Z,5.04
2019-02-19T23:34:23.141Z,5.08
2019-02-19T23:36:58.300Z,5.05
2019-02-19T23:39:27.398Z,5.01
2019-02-19T23:41:56.666Z,5.09
2019-02-19T23:44:25.690Z,5.12
2019-02-19T23:46:54.891Z,5.18
2019-02-19T23:49:23.928Z,5.22
2019-02-19T23:51:53.477Z,5.20
2019-02-19T23:54:22.571Z,5.19
2019-02-19T23:56:51.645Z,5.05
2019-02-19T23:59:21.082Z,5.01
